Time;durP1;ratioP1;P1;durP2;ratioP2;P2;SDS_P1;SDS_P2;PMS_P1;PMS_P2;Temp;Humidity;BMP_temperature;BMP_pressure;BME280_temperature;BME280_humidity;BME280_pressure;Samples;Min_cycle;Max_cycle;Signal;HPM_P1;HPM_P2
2022/05/09 00:00:21;;;;;;;23.85;17.10;;;;;;;9.91;76.33;97999.47;1441356;98;27684;-75
2022/05/09 00:02:50;;;;;;;22.62;17.48;;;;;;;9.86;76.35;97997.88;1441343;98;25811;-75
2022/05/09 00:05:20;;;;;;;22.85;17.07;;;;;;;9.85;76.45;97998.91;1441571;99;25865;-75
2022/05/09 00:07:47;;;;;;;19.27;15.10;;;;;;;9.85;76.53;98004.30;1441512;98;26016;-75
2022/05/09 00:10:17;;;;;;;18.90;15.23;;;;;;;9.85;76.47;98001.59;1441426;99;25984;-75
2022/05/09 00:12:47;;;;;;;19.07;15.30;;;;;;;9.86;76.54;98004.62;1441560;99;28159;-75
2022/05/09 00:15:17;;;;;;;21.23;15.23;;;;;;;9.84;76.55;98008.02;1481427;96;25744;-75
2022/05/09 00:17:45;;;;;;;21.30;15.10;;;;;;;9.83;76.61;98004.48;1487655;95;25380;-75
2022/05/09 00:20:15;;;;;;;17.87;14.80;;;;;;;9.77;76.46;98009.82;1487699;96;26888;-75
2022/05/09 00:22:55;;;;;;;21.62;15.43;;;;;;;9.71;76.56;98006.85;1487755;95;25957;-75
2022/05/09 00:25:26;;;;;;;22.02;14.53;;;;;;;9.71;76.62;98012.24;1487692;95;27431;-75
2022/05/09 00:27:55;;;;;;;20.10;14.90;;;;;;;9.70;76.65;98005.69;1487615;96;25871;-75
2022/05/09 00:30:22;;;;;;;18.52;15.30;;;;;;;9.67;76.66;97998.81;1452322;97;25917;-75
2022/05/09 00:32:49;;;;;;;21.27;14.90;;;;;;;9.68;76.75;98005.05;1427624;99;26081;-75
2022/05/09 00:35:16;;;;;;;19.27;14.18;;;;;;;9.67;76.69;98005.55;1443164;99;25914;-75
2022/05/09 00:37:43;;;;;;;22.62;15.78;;;;;;;9.62;76.69;98005.31;1427528;100;27435;-75
2022/05/09 00:40:13;;;;;;;20.17;14.47;;;;;;;9.57;76.73;98006.38;1443255;98;25863;-75
2022/05/09 00:42:52;;;;;;;19.50;15.50;;;;;;;9.51;76.85;98003.11;1429674;99;25845;-75
2022/05/09 00:45:23;;;;;;;19.55;14.85;;;;;;;9.52;76.95;98012.03;1443783;99;26187;-75
2022/05/09 00:47:50;;;;;;;22.20;16.23;;;;;;;9.50;76.99;98009.52;1443602;98;25830;-75
2022/05/09 00:50:25;;;;;;;21.85;15.38;;;;;;;9.53;77.02;98011.02;1477232;95;28079;-75
2022/05/09 00:53:05;;;;;;;20.02;14.83;;;;;;;9.52;76.95;98012.03;1467030;97;25819;-75
2022/05/09 00:55:51;;;;;;;18.42;15.03;;;;;;;9.50;77.04;98011.38;1508642;93;27035;-75
2022/05/09 00:58:38;;;;;;;22.15;15.23;;;;;;;9.46;77.13;98017.66;1517317;93;26071;-75
2022/05/09 01:01:07;;;;;;;21.93;15.43;;;;;;;9.45;77.20;98011.94;1517296;93;25866;-75
2022/05/09 01:04:00;;;;;;;21.65;13.95;;;;;;;9.43;77.13;98022.06;1517339;93;26837;-75
2022/05/09 01:06:27;;;;;;;;;;;;;;;9.37;77.07;98020.14;1519398;93;25889;-75
2022/05/09 01:08:53;;;;;;;19.42;13.13;;;;;;;9.35;77.17;98026.23;1517374;93;25899;-75
2022/05/09 01:11:24;;;;;;;16.45;12.88;;;;;;;9.34;77.17;98027.25;1522679;92;26804;-75
2022/05/09 01:14:13;;;;;;;17.12;12.75;;;;;;;9.33;77.07;98026.92;1517358;93;25821;-75
2022/05/09 01:16:40;;;;;;;21.97;12.82;;;;;;;9.31;77.04;98028.97;1516409;93;27441;-75
2022/05/09 01:19:34;;;;;;;16.95;12.78;;;;;;;9.27;77.02;98028.53;1516608;93;25379;-75
2022/05/09 01:22:03;;;;;;;17.60;13.28;;;;;;;9.21;76.98;98032.47;1469269;96;25784;-75
2022/05/09 01:24:31;;;;;;;16.48;13.00;;;;;;;9.19;76.99;98033.16;1474712;95;26019;-76
2022/05/09 01:26:58;;;;;;;15.53;12.85;;;;;;;9.16;76.92;98038.95;1485107;94;25862;-76
2022/05/09 01:29:47;;;;;;;14.73;12.70;;;;;;;9.07;76.89;98035.49;1506642;93;27479;-75
2022/05/09 01:32:19;;;;;;;15.90;12.82;;;;;;;9.07;76.99;98039.53;1527867;93;25924;-75
2022/05/09 01:34:51;;;;;;;16.12;13.13;;;;;;;8.98;76.93;98040.14;1528115;93;25361;-76
2022/05/09 01:37:21;;;;;;;19.67;12.73;;;;;;;8.99;77.08;98040.47;1525479;93;26081;-75
2022/05/09 01:39:47;;;;;;;16.00;12.23;;;;;;;8.95;76.96;98043.20;1545551;92;25849;-75
2022/05/09 01:42:14;;;;;;;15.55;12.50;;;;;;;8.87;76.93;98046.00;1552976;92;28183;-75
2022/05/09 01:44:41;;;;;;;18.20;12.68;;;;;;;8.82;77.05;98043.01;1564160;90;25860;-75
2022/05/09 01:49:54;;;;;;;13.70;12.23;;;;;;;8.79;77.25;98035.33;1577114;90;26684;-75
2022/05/09 01:52:21;;;;;;;15.40;11.08;;;;;;;8.78;77.33;98035.00;1577441;90;25849;-75
2022/05/09 01:54:48;;;;;;;15.32;11.38;;;;;;;8.79;77.38;98037.18;1577382;90;26872;-75
2022/05/09 01:57:15;;;;;;;18.37;11.88;;;;;;;8.79;77.37;98040.71;1577497;90;25868;-75
2022/05/09 01:59:42;;;;;;;13.32;10.88;;;;;;;8.79;77.41;98036.67;1618181;88;25822;-75
2022/05/09 02:02:14;;;;;;;14.70;11.30;;;;;;;8.75;77.38;98046.12;1626976;88;26164;-75
2022/05/09 02:04:41;;;;;;;12.97;11.10;;;;;;;8.75;77.53;98034.52;1574963;90;25904;-76
2022/05/09 02:07:14;;;;;;;15.98;11.10;;;;;;;8.76;77.67;98041.07;1577318;90;27410;-75
2022/05/09 02:09:44;;;;;;;14.33;11.75;;;;;;;8.78;77.76;98039.03;1577511;90;25849;-75
2022/05/09 02:12:13;;;;;;;14.90;10.98;;;;;;;8.81;77.80;98038.67;1551710;92;26234;-75
2022/05/09 02:14:40;;;;;;;17.52;11.68;;;;;;;8.83;77.84;98035.26;1550351;92;26164;-75
2022/05/09 02:17:08;;;;;;;13.58;11.55;;;;;;;8.85;77.86;98035.92;1585470;90;25853;-75
2022/05/09 02:19:36;;;;;;;15.05;12.30;;;;;;;8.84;77.81;98036.94;1592947;89;27417;-76
2022/05/09 02:22:03;;;;;;;16.55;12.28;;;;;;;8.81;77.81;98040.53;1602612;89;25920;-75
2022/05/09 02:24:30;;;;;;;16.95;12.75;;;;;;;8.79;77.84;98040.71;1576615;90;25781;-75
2022/05/09 02:27:00;;;;;;;18.50;13.05;;;;;;;8.80;77.92;98042.38;1576648;90;26762;-75
2022/05/09 02:29:26;;;;;;;17.45;12.15;;;;;;;8.83;77.97;98044.68;1576433;90;25940;-75
2022/05/09 02:31:54;;;;;;;14.87;11.85;;;;;;;8.83;77.88;98040.64;1576674;90;27526;-75
2022/05/09 02:34:21;;;;;;;15.03;11.28;;;;;;;8.81;77.81;98048.61;1576522;90;25873;-75
2022/05/09 02:36:48;;;;;;;13.25;11.38;;;;;;;8.79;77.80;98043.41;1576867;90;25810;-75
2022/05/09 02:39:15;;;;;;;15.70;11.15;;;;;;;8.75;77.73;98042.09;1576703;90;26652;-75
2022/05/09 02:41:42;;;;;;;14.50;11.35;;;;;;;8.73;77.70;98044.13;1576468;90;26074;-75
2022/05/09 02:44:09;;;;;;;14.10;11.45;;;;;;;8.68;77.67;98047.05;1570778;90;26977;-75
2022/05/09 02:46:36;;;;;;;12.50;10.63;;;;;;;8.62;77.74;98042.72;1565915;91;25987;-75
2022/05/09 02:49:03;;;;;;;14.95;11.85;;;;;;;8.62;77.81;98043.23;1565820;91;25817;-75
2022/05/09 02:51:30;;;;;;;12.68;10.88;;;;;;;8.61;77.77;98040.21;1565807;91;26848;-75
2022/05/09 02:53:57;;;;;;;15.38;11.30;;;;;;;8.61;77.78;98043.73;1565954;91;25838;-75
2022/05/09 02:56:25;;;;;;;14.55;10.98;;;;;;;8.61;77.72;98044.25;1565752;91;28463;-75
2022/05/09 02:58:51;;;;;;;13.80;10.68;;;;;;;8.59;77.68;98039.55;1565865;91;25869;-76
2022/05/09 03:01:18;;;;;;;12.20;11.00;;;;;;;8.56;77.67;98038.09;1576842;89;25800;-75
2022/05/09 03:06:31;;;;;;;13.60;11.20;;;;;;;8.47;77.63;98022.18;1595057;89;25961;-75
2022/05/09 03:08:58;;;;;;;11.15;10.05;;;;;;;8.44;77.77;98030.64;1595259;89;27407;-76
2022/05/09 03:11:24;;;;;;;13.55;9.63;;;;;;;8.39;77.67;98033.03;1595199;89;26042;-75
2022/05/09 03:13:51;;;;;;;15.55;11.18;;;;;;;8.37;77.65;98035.90;1595448;89;25900;-76
2022/05/09 03:16:17;;;;;;;12.93;10.40;;;;;;;8.34;77.67;98038.11;1644267;86;25845;-75
2022/05/09 03:18:44;;;;;;;13.98;10.88;;;;;;;8.34;77.79;98038.11;1654630;86;25570;-76
2022/05/09 03:21:11;;;;;;;12.75;10.38;;;;;;;8.34;77.97;98040.80;1654536;86;28227;-75
2022/05/09 03:23:37;;;;;;;14.35;11.15;;;;;;;8.35;78.07;98040.62;1654330;86;25778;-75
2022/05/09 03:26:04;;;;;;;16.35;10.72;;;;;;;8.35;78.06;98047.34;1654299;86;25309;-75
2022/05/09 03:28:31;;;;;;;13.83;10.72;;;;;;;8.29;78.07;98045.36;1654467;86;26054;-75
2022/05/09 03:31:00;;;;;;;16.70;12.23;;;;;;;8.29;78.26;98048.89;1654475;86;25309;-75
2022/05/09 03:33:27;;;;;;;15.58;11.33;;;;;;;8.32;78.37;98056.31;1654567;86;28171;-75
2022/05/09 03:35:57;;;;;;;18.42;10.60;;;;;;;8.29;78.33;98058.30;1654399;86;25998;-75
2022/05/09 03:38:23;;;;;;;18.90;11.88;;;;;;;8.27;78.40;98063.02;1654177;86;26652;-75
2022/05/09 03:40:50;;;;;;;15.65;11.12;;;;;;;8.24;78.50;98063.38;1654519;86;26043;-75
2022/05/09 03:43:16;;;;;;;26.87;12.88;;;;;;;8.25;78.66;98065.05;1655898;85;25934;-75
2022/05/09 03:45:45;;;;;;;15.93;11.90;;;;;;;8.30;78.79;98064.52;1678543;85;27388;-75
2022/05/09 03:48:15;;;;;;;16.45;12.15;;;;;;;8.34;78.84;98067.70;1670355;85;26528;-76
2022/05/09 03:50:42;;;;;;;16.00;12.05;;;;;;;8.35;78.90;98068.03;1678441;85;25775;-75
2022/05/09 03:53:08;;;;;;;15.23;11.45;;;;;;;8.30;78.85;98073.43;1678246;85;27022;-75
2022/05/09 03:55:35;;;;;;;16.17;11.48;;;;;;;8.30;78.92;98080.16;1678345;85;26423;-75
2022/05/09 03:58:02;;;;;;;19.87;12.70;;;;;;;8.34;78.97;98082.48;1678456;85;27364;-75
2022/05/09 04:00:32;;;;;;;14.23;11.90;;;;;;;8.30;78.94;98082.00;1678376;85;25244;-75
2022/05/09 04:03:01;;;;;;;14.80;11.70;;;;;;;8.25;79.05;98078.50;1678357;85;25221;-75
2022/05/09 04:05:30;;;;;;;18.40;12.15;;;;;;;8.30;79.17;98083.35;1678345;85;26075;-75
2022/05/09 04:07:59;;;;;;;16.15;11.40;;;;;;;8.30;79.21;98084.19;1678389;85;25758;-75
2022/05/09 04:10:30;;;;;;;20.43;12.30;;;;;;;8.31;79.31;98087.72;1678471;85;28250;-76
2022/05/09 04:12:58;;;;;;;16.45;11.95;;;;;;;8.34;79.44;98090.05;1678339;85;25805;-76
2022/05/09 04:18:10;;;;;;;17.00;12.63;;;;;;;8.48;79.56;98096.50;1678354;85;26618;-75
2022/05/09 04:20:38;;;;;;;19.82;12.63;;;;;;;8.50;79.52;98097.16;1678426;85;25714;-75
2022/05/09 04:23:06;;;;;;;18.57;12.58;;;;;;;8.52;79.61;98092.44;1678458;85;27358;-75
2022/05/09 04:25:33;;;;;;;15.85;13.43;;;;;;;8.58;79.67;98087.66;1678337;85;25755;-76
2022/05/09 04:28:02;;;;;;;20.52;14.47;;;;;;;8.66;79.73;98092.98;1678373;85;25759;-75
2022/05/09 04:30:31;;;;;;;22.15;14.65;;;;;;;8.72;79.70;98097.63;1678246;85;25998;-75
2022/05/09 04:32:58;;;;;;;23.70;14.98;;;;;;;8.80;79.75;98097.56;1678533;85;25758;-76
2022/05/09 04:35:25;;;;;;;20.05;15.83;;;;;;;8.87;79.75;98094.45;1678285;85;27594;-75
2022/05/09 04:37:54;;;;;;;20.02;15.43;;;;;;;8.94;79.80;98094.54;1678319;85;25853;-76
2022/05/09 04:40:25;;;;;;;19.65;15.85;;;;;;;9.00;79.79;98097.35;1678232;85;25323;-76
2022/05/09 04:42:52;;;;;;;15.75;13.72;;;;;;;9.07;79.72;98097.44;1678403;85;26056;-76
2022/05/09 04:45:19;;;;;;;22.58;16.17;;;;;;;9.07;79.74;98098.78;1678132;83;25704;-76
2022/05/09 04:47:49;;;;;;;22.65;15.65;;;;;;;9.09;79.87;98101.30;1678323;85;27581;-76
2022/05/09 04:50:15;;;;;;;19.55;15.60;;;;;;;9.11;79.88;98105.98;1678180;84;25895;-76
2022/05/09 04:52:42;;;;;;;21.93;14.83;;;;;;;9.17;79.89;98108.80;1678499;85;25767;-76
2022/05/09 04:55:09;;;;;;;21.33;15.63;;;;;;;9.24;79.91;98114.27;1678453;85;26020;-76
2022/05/09 04:57:36;;;;;;;21.87;15.88;;;;;;;9.30;80.02;98108.11;1678566;85;26739;-75
2022/05/09 05:00:07;;;;;;;19.17;15.18;;;;;;;9.36;79.94;98108.73;1678425;85;27450;-76
2022/05/09 05:02:33;;;;;;;22.75;15.90;;;;;;;9.43;79.91;98108.30;1678367;85;25797;-76
2022/05/09 05:05:00;;;;;;;23.52;17.15;;;;;;;9.48;79.97;98109.94;1678482;85;25796;-76
2022/05/09 05:07:26;;;;;;;31.65;19.92;;;;;;;9.51;80.05;98112.77;1678448;85;26977;-76
2022/05/09 05:09:53;;;;;;;29.60;21.17;;;;;;;9.55;80.04;98115.39;1678538;84;25754;-75
2022/05/09 05:12:19;;;;;;;24.02;19.10;;;;;;;9.58;79.92;98113.17;1678364;85;28441;-76
2022/05/09 05:14:46;;;;;;;24.00;19.25;;;;;;;9.65;80.01;98118.16;1678351;85;25658;-75
2022/05/09 05:17:13;;;;;;;32.95;22.00;;;;;;;9.71;79.99;98116.03;1678441;85;25733;-75
2022/05/09 05:19:42;;;;;;;30.50;21.65;;;;;;;9.78;79.96;98116.64;1678347;85;25984;-76
2022/05/09 05:22:12;;;;;;;31.20;24.00;;;;;;;9.83;80.00;98118.24;1678511;85;25472;-76
2022/05/09 05:24:43;;;;;;;32.48;21.15;;;;;;;9.90;79.97;98123.22;1678319;85;27575;-76
2022/05/09 05:27:08;;;;;;;29.00;20.50;;;;;;;9.95;79.98;98120.26;1678057;85;25295;-76
2022/05/09 05:29:35;;;;;;;25.57;19.30;;;;;;;10.00;79.89;98122.40;1678375;85;25267;-75
2022/05/09 05:32:19;;;;;;;23.22;18.57;;;;;;;10.06;79.90;98118.92;1678590;85;26844;-76
2022/05/09 05:34:47;;;;;;;25.08;18.87;;;;;;;10.12;79.87;98112.78;1678021;85;25801;-75
2022/05/09 05:37:14;;;;;;;24.65;17.57;;;;;;;10.20;79.97;98118.08;1678477;85;27360;-76
2022/05/09 05:39:41;;;;;;;22.00;17.23;;;;;;;10.27;79.97;98121.66;1678279;85;25228;-76
2022/05/09 05:42:09;;;;;;;22.27;17.70;;;;;;;10.35;79.98;98120.73;1678529;85;25734;-76
2022/05/09 05:44:39;;;;;;;27.45;18.67;;;;;;;10.42;80.06;98122.45;1680215;85;26008;-76
2022/05/09 05:47:08;;;;;;;28.70;19.87;;;;;;;10.51;80.07;98123.66;1684320;85;25842;-76
2022/05/09 05:49:37;;;;;;;23.55;18.05;;;;;;;10.59;79.92;98122.20;1684316;85;27459;-76
2022/05/09 05:52:04;;;;;;;19.75;16.20;;;;;;;10.67;79.85;98130.98;1684283;85;25906;-76
2022/05/09 05:54:40;;;;;;;22.62;17.15;;;;;;;10.75;79.69;98124.09;1684438;84;25703;-77
2022/05/09 05:57:24;;;;;;;22.75;16.93;;;;;;;10.82;79.65;98125.00;1636247;87;26763;-76
2022/05/09 06:00:02;;;;;;;22.35;18.02;;;;;;;10.94;79.72;98125.30;1636438;87;25304;-77
2022/05/09 06:02:29;;;;;;;25.88;17.37;;;;;;;11.04;79.68;98130.34;1636355;87;27564;-76
2022/05/09 06:04:56;;;;;;;21.80;16.10;;;;;;;11.13;79.62;98127.30;1636119;87;25558;-76
2022/05/09 06:07:23;;;;;;;19.00;15.53;;;;;;;11.25;79.55;98132.98;1636306;87;25673;-76
2022/05/09 06:09:52;;;;;;;22.73;16.75;;;;;;;11.38;79.52;98132.23;1636338;87;25988;-77
2022/05/09 06:12:21;;;;;;;22.32;17.12;;;;;;;11.47;79.47;98131.06;1636361;87;25716;-75
2022/05/09 06:15:24;;;;;;;21.35;17.02;;;;;;;11.57;79.50;98129.34;1636154;87;27436;-76
2022/05/09 06:17:16;;;;;;;21.12;16.35;;;;;;;11.69;79.42;98129.09;1634073;87;25746;-76
2022/05/09 06:19:44;;;;;;;21.30;15.90;;;;;;;11.81;79.23;98133.77;1636477;87;25798;-76
2022/05/09 06:22:11;;;;;;;20.55;16.23;;;;;;;11.93;78.96;98131.83;1636288;87;26168;-76
2022/05/09 06:24:37;;;;;;;20.20;15.80;;;;;;;12.04;78.73;98135.30;1636344;87;25784;-76
2022/05/09 06:27:05;;;;;;;21.65;15.28;;;;;;;12.14;78.54;98142.00;1636217;87;27384;-76
2022/05/09 06:29:31;;;;;;;17.17;14.80;;;;;;;12.24;78.43;98142.44;1636056;87;26001;-76
2022/05/09 06:31:59;;;;;;;19.85;14.33;;;;;;;12.34;78.25;98142.04;1636225;87;25766;-76
2022/05/09 06:34:26;;;;;;;18.48;14.25;;;;;;;12.45;78.08;98146.02;1636263;87;26206;-77
2022/05/09 06:36:52;;;;;;;18.77;15.28;;;;;;;12.53;77.86;98134.49;1636224;87;25929;-77
2022/05/09 06:39:19;;;;;;;21.97;15.88;;;;;;;12.60;77.70;98136.68;1636288;87;27372;-77
2022/05/09 06:41:47;;;;;;;18.30;14.28;;;;;;;12.56;77.33;98141.34;1636220;87;25790;-76
2022/05/09 06:44:14;;;;;;;22.13;15.32;;;;;;;12.57;77.45;98138.95;1636110;87;25802;-76
2022/05/09 06:46:40;;;;;;;19.27;14.75;;;;;;;12.67;77.61;98141.28;1633175;87;26569;-76
2022/05/09 06:49:07;;;;;;;16.20;14.10;;;;;;;12.74;77.43;98136.70;1633156;87;25709;-76
2022/05/09 06:51:33;;;;;;;18.62;13.90;;;;;;;12.82;77.31;98129.70;1633381;87;26871;-77
2022/05/09 06:54:01;;;;;;;15.68;13.00;;;;;;;12.92;77.19;98135.02;1659957;85;25674;-78
2022/05/09 06:56:28;;;;;;;17.57;14.43;;;;;;;13.01;77.18;98130.25;1677872;85;26544;-77
2022/05/09 06:58:54;;;;;;;19.12;13.20;;;;;;;13.08;76.91;98136.48;1677110;85;26839;-76
2022/05/09 07:01:21;;;;;;;20.27;14.03;;;;;;;13.17;77.13;98133.89;1677215;85;25822;-77
2022/05/09 07:03:48;;;;;;;15.08;13.03;;;;;;;13.29;77.26;98130.02;1677183;85;28193;-78
2022/05/09 07:06:16;;;;;;;14.95;12.58;;;;;;;13.43;77.44;98131.67;1677046;85;25804;-78
2022/05/09 07:08:43;;;;;;;12.73;11.25;;;;;;;13.55;77.10;98131.85;1677085;85;25731;-78
2022/05/09 07:11:11;;;;;;;19.05;12.25;;;;;;;13.69;76.86;98133.48;1677126;85;26036;-76
2022/05/09 07:13:38;;;;;;;14.38;11.22;;;;;;;13.80;76.61;98134.18;1677157;85;25995;-77
2022/05/09 07:16:05;;;;;;;14.03;11.43;;;;;;;13.89;76.31;98131.53;1677309;85;28037;-78
2022/05/09 07:18:32;;;;;;;14.38;10.80;;;;;;;14.00;76.10;98131.41;1676917;85;25757;-78
2022/05/09 07:20:58;;;;;;;12.85;10.15;;;;;;;14.11;75.88;98132.61;1647921;85;25742;-77
2022/05/09 07:23:25;;;;;;;9.30;8.28;;;;;;;14.19;75.51;98134.55;1677215;85;26073;-76
2022/05/09 07:25:52;;;;;;;11.45;8.35;;;;;;;14.30;75.25;98131.66;1676918;85;25482;-78
2022/05/09 07:28:21;;;;;;;8.18;7.20;;;;;;;14.40;74.86;98134.77;1676996;85;27442;-76
2022/05/09 07:30:49;;;;;;;9.33;6.75;;;;;;;14.50;74.74;98132.40;1676963;85;26125;-77
2022/05/09 07:33:19;;;;;;;7.55;6.53;;;;;;;14.66;74.60;98133.23;1677171;85;25742;-77
2022/05/09 07:35:47;;;;;;;6.75;5.50;;;;;;;14.81;74.20;98134.81;1677103;85;26816;-78
2022/05/09 07:38:14;;;;;;;6.10;4.92;;;;;;;14.98;73.93;98134.56;1677188;85;26727;-78
2022/05/09 07:40:43;;;;;;;6.62;5.17;;;;;;;15.11;73.45;98131.20;1677079;85;28105;-77
2022/05/09 07:43:17;;;;;;;9.03;5.80;;;;;;;15.23;72.98;98134.55;1677105;85;25408;-76
2022/05/09 07:45:44;;;;;;;7.65;5.58;;;;;;;15.56;72.87;98135.64;1652017;86;25802;-76
2022/05/09 07:48:12;;;;;;;6.87;5.03;;;;;;;16.09;72.53;98128.52;1654632;86;26029;-77
2022/05/09 07:50:40;;;;;;;6.67;5.45;;;;;;;16.44;71.95;98132.75;1654811;86;25430;-76
2022/05/09 07:53:18;;;;;;;9.53;5.37;;;;;;;16.56;71.38;98123.25;1654850;86;28105;-78
2022/05/09 07:55:45;;;;;;;8.68;5.20;;;;;;;16.52;70.80;98132.98;1654437;86;25580;-78
2022/05/09 07:58:13;;;;;;;5.87;4.78;;;;;;;16.53;70.58;98127.83;1654782;86;25811;-78
2022/05/09 08:00:45;;;;;;;6.78;5.28;;;;;;;16.50;70.43;98126.39;1654643;86;25608;-79
2022/05/09 08:03:21;;;;;;;6.72;5.17;;;;;;;16.57;70.32;98127.64;1638688;87;25883;-77
2022/05/09 08:05:49;;;;;;;6.37;4.67;;;;;;;16.82;70.35;98124.25;1638585;87;27397;-78
2022/05/09 08:08:17;;;;;;;6.28;4.78;;;;;;;17.33;70.30;98124.14;1638502;87;25779;-78
2022/05/09 08:10:45;;;;;;;5.80;4.85;;;;;;;17.88;70.10;98119.13;1638595;87;25752;-79
2022/05/09 08:13:15;;;;;;;5.33;4.58;;;;;;;18.41;69.50;98119.92;1638678;87;26648;-80
2022/05/09 08:15:45;;;;;;;7.90;4.20;;;;;;;18.68;67.58;98122.39;1622286;88;25831;-80
2022/05/09 08:20:45;;;;;;;5.12;3.90;;;;;;;19.11;67.02;98123.12;1562100;91;25908;-78
2022/05/09 08:23:18;;;;;;;5.67;4.70;;;;;;;19.26;66.31;98125.28;1560666;91;25842;-77
2022/05/09 08:25:49;;;;;;;7.78;4.40;;;;;;;19.30;65.38;98122.35;1558511;91;25530;-77
2022/05/09 08:28:17;;;;;;;9.35;5.58;;;;;;;19.12;64.81;98119.85;1559912;91;25864;-77
2022/05/09 08:30:44;;;;;;;5.97;4.47;;;;;;;19.34;64.75;98109.26;1561961;91;27469;-79
2022/05/09 08:33:18;;;;;;;7.33;4.72;;;;;;;19.49;64.47;98123.76;1562061;91;25879;-79
2022/05/09 08:35:47;;;;;;;6.80;4.78;;;;;;;19.53;64.37;98123.55;1484032;96;25876;-79
2022/05/09 08:38:14;;;;;;;10.20;5.95;;;;;;;19.58;64.04;98123.61;1483911;96;26241;-79
2022/05/09 08:40:58;;;;;;;7.97;5.55;;;;;;;19.86;64.03;98128.66;1483961;96;25919;-77
2022/05/09 08:43:51;;;;;;;8.18;5.40;;;;;;;20.09;62.61;98118.29;1484088;96;27276;-78
2022/05/09 08:46:51;;;;;;;8.83;5.10;;;;;;;20.36;62.00;98114.80;1513645;94;25859;-79
2022/05/09 08:49:52;;;;;;;5.50;4.95;;;;;;;20.51;61.05;98125.13;1515044;94;25858;-79
2022/05/09 08:52:33;;;;;;;6.28;4.53;;;;;;;20.54;60.82;98133.64;1517250;93;26577;-77
2022/05/09 08:54:59;;;;;;;5.87;4.37;;;;;;;20.63;60.34;98132.11;1517120;93;25804;-80
2022/05/09 08:57:37;;;;;;;7.97;4.10;;;;;;;20.43;59.19;98134.61;1514674;94;28058;-77
2022/05/09 09:00:11;;;;;;;5.92;3.72;;;;;;;20.43;59.19;98134.61;1523111;94;25628;-79
2022/05/09 09:03:06;;;;;;;5.33;3.58;;;;;;;20.02;58.32;98130.53;1467320;97;25910;-79
2022/05/09 09:05:36;;;;;;;7.67;4.35;;;;;;;20.02;58.32;98130.53;1465372;97;26112;-79
2022/05/09 09:08:44;;;;;;;6.42;3.87;;;;;;;20.07;58.76;98138.80;1466217;97;25598;-78
2022/05/09 09:11:28;;;;;;;5.25;3.65;;;;;;;20.23;58.41;98139.84;1466530;97;28254;-78
2022/05/09 09:14:12;;;;;;;9.38;4.20;;;;;;;20.21;57.91;98142.83;1448822;98;25869;-77
2022/05/09 09:17:08;;;;;;;5.80;3.40;;;;;;;20.30;57.71;98142.66;1452682;98;25866;-79
2022/05/09 09:19:58;;;;;;;4.65;3.62;;;;;;;20.52;57.64;98144.61;1446828;99;26164;-79
2022/05/09 09:22:58;;;;;;;4.25;3.83;;;;;;;21.40;56.75;98110.30;1450233;98;25849;-78
2022/05/09 09:25:51;;;;;;;7.50;4.12;;;;;;;21.40;56.75;98110.30;1499322;95;27444;-78
2022/05/09 09:28:28;;;;;;;6.15;4.72;;;;;;;21.93;55.52;98131.25;1516696;94;26403;-78
2022/05/09 09:30:57;;;;;;;5.62;3.83;;;;;;;21.93;55.52;98131.25;1513920;94;25781;-79
2022/05/09 09:33:24;;;;;;;5.92;4.00;;;;;;;21.71;54.92;98098.98;1577889;90;27014;-78
2022/05/09 09:36:08;;;;;;;4.80;4.25;;;;;;;21.57;54.50;98127.46;1591948;90;25855;-79
2022/05/09 09:38:58;;;;;;;5.45;3.47;;;;;;;21.57;54.50;98127.46;1540246;93;28054;-78
2022/05/09 09:41:33;;;;;;;6.20;3.42;;;;;;;21.38;54.05;98120.72;1547977;91;25842;-78
2022/05/09 09:44:13;;;;;;;6.03;3.33;;;;;;;21.26;53.57;98107.72;1555872;91;25816;-78
2022/05/09 09:47:25;;;;;;;6.75;3.70;;;;;;;21.26;53.57;98107.72;1525080;93;26152;-77
2022/05/09 09:50:18;;;;;;;4.95;3.52;;;;;;;21.31;52.98;98124.25;1550480;92;25820;-78
2022/05/09 09:52:55;;;;;;;5.75;3.42;;;;;;;21.13;52.90;98126.25;1550808;92;27405;-77
2022/05/09 09:55:32;;;;;;;4.97;3.30;;;;;;;20.98;52.24;98124.77;1550481;92;25676;-76
2022/05/09 09:58:20;;;;;;;8.28;3.72;;;;;;;20.80;52.59;98125.13;1503524;95;25948;-77
2022/05/09 10:00:47;;;;;;;4.33;3.55;;;;;;;20.76;53.16;98125.39;1503918;95;26105;-77
2022/05/09 10:03:23;;;;;;;7.22;4.33;;;;;;;20.66;52.96;98128.00;1503669;95;25893;-77
2022/05/09 10:05:51;;;;;;;4.55;3.65;;;;;;;20.41;52.82;98126.64;1503487;95;28780;-76
2022/05/09 10:08:36;;;;;;;5.90;3.90;;;;;;;20.36;53.41;98125.77;1503653;95;26517;-76
2022/05/09 10:11:28;;;;;;;4.72;4.03;;;;;;;20.34;53.22;98125.99;1503697;95;25901;-77
2022/05/09 10:13:58;;;;;;;9.00;4.42;;;;;;;20.28;53.01;98131.14;1438524;99;26813;-77
2022/05/09 10:19:09;;;;;;;6.70;4.20;;;;;;;20.27;53.24;98126.75;1437409;99;27489;-77
2022/05/09 10:24:49;;;;;;;5.20;4.20;;;;;;;20.61;53.58;98126.59;1393194;102;26488;-77
2022/05/09 10:27:26;;;;;;;6.08;4.55;;;;;;;20.79;53.30;98117.45;1393290;102;26635;-77
2022/05/09 10:29:57;;;;;;;4.72;4.17;;;;;;;20.91;52.70;98110.42;1382343;102;25828;-78
2022/05/09 10:32:49;;;;;;;6.30;4.20;;;;;;;21.14;52.84;98115.56;1370783;104;27457;-76
2022/05/09 10:35:23;;;;;;;6.22;4.25;;;;;;;21.13;52.97;98090.57;1388003;100;25718;-78
2022/05/09 10:37:55;;;;;;;5.22;4.55;;;;;;;21.24;50.73;98111.30;1400022;102;25906;-77
2022/05/09 10:40:28;;;;;;;;;;;;;;;21.24;50.73;98111.30;1442440;99;26717;-79
2022/05/09 10:43:05;;;;;;;7.70;4.50;;;;;;;21.17;50.57;98112.30;1441645;99;26384;-77
2022/05/09 10:45:41;;;;;;;4.40;3.87;;;;;;;20.90;50.98;98073.63;1398808;101;27547;-78
2022/05/09 10:48:15;;;;;;;6.25;4.33;;;;;;;21.06;51.14;98111.94;1392250;103;25996;-77
2022/05/09 10:50:53;;;;;;;7.05;4.87;;;;;;;20.84;51.09;98080.47;1392626;103;25782;-77
2022/05/09 10:53:33;;;;;;;10.15;4.70;;;;;;;20.84;51.09;98080.47;1351201;106;26759;-78
2022/05/09 10:56:17;;;;;;;6.58;5.15;;;;;;;20.91;51.06;98101.36;1345679;105;25838;-76
2022/05/09 10:59:01;;;;;;;6.37;4.72;;;;;;;20.82;50.80;98101.02;1354456;104;27489;-76
2022/05/09 11:02:17;;;;;;;6.65;4.17;;;;;;;20.75;51.00;98103.98;1354333;104;25756;-79
2022/05/09 11:04:44;;;;;;;6.78;4.65;;;;;;;20.70;50.72;98104.46;1354483;104;25995;-76
2022/05/09 11:07:34;;;;;;;6.95;4.37;;;;;;;20.56;50.54;98100.47;1354567;104;26656;-76
2022/05/09 11:10:21;;;;;;;4.65;3.52;;;;;;;20.51;50.50;98104.02;1359886;103;25990;-76
2022/05/09 11:13:05;;;;;;;5.37;4.40;;;;;;;20.49;50.82;98098.78;1392312;102;27688;-76
2022/05/09 11:16:06;;;;;;;5.30;4.08;;;;;;;20.52;50.71;98087.02;1392448;101;26196;-78
2022/05/09 11:19:20;;;;;;;7.47;4.87;;;;;;;20.51;50.99;98104.55;1404047;100;25935;-77
2022/05/09 11:22:17;;;;;;;8.25;5.17;;;;;;;20.51;50.99;98097.16;1384515;103;26658;-76
2022/05/09 11:25:11;;;;;;;6.40;5.35;;;;;;;20.42;50.96;98097.30;1386991;102;25908;-77
2022/05/09 11:28:02;;;;;;;7.25;5.00;;;;;;;20.34;51.17;98097.20;1404758;102;27451;-76
2022/05/09 11:30:34;;;;;;;7.03;4.67;;;;;;;20.38;51.53;98092.91;1421287;98;25932;-76
2022/05/09 11:33:44;;;;;;;7.42;4.17;;;;;;;20.44;51.46;98091.03;1401142;101;25886;-75
2022/05/09 11:36:49;;;;;;;6.28;4.87;;;;;;;20.37;51.37;98087.13;1412607;100;26922;-77
2022/05/09 11:39:33;;;;;;;9.75;5.05;;;;;;;20.34;51.09;98087.61;1458245;98;25894;-78
2022/05/09 11:45:16;;;;;;;6.95;4.85;;;;;;;20.18;50.38;98074.80;1476454;95;25919;-75
2022/05/09 11:48:19;;;;;;;7.37;4.33;;;;;;;20.05;50.05;98075.19;1477937;96;25964;-76
2022/05/09 11:51:16;;;;;;;7.72;4.53;;;;;;;20.05;50.34;98076.56;1434723;98;26079;-74
2022/05/09 11:53:48;;;;;;;7.53;4.50;;;;;;;20.12;50.42;98075.30;1450076;98;25884;-77
2022/05/09 11:56:15;;;;;;;5.25;3.85;;;;;;;20.19;50.50;98070.16;1469538;97;33536;-75
2022/05/09 11:58:43;;;;;;;9.45;4.40;;;;;;;20.58;50.71;98065.39;1469067;97;25846;-78
2022/05/09 12:01:11;;;;;;;7.78;3.60;;;;;;;20.91;50.14;98055.53;1469239;97;26126;-77
2022/05/09 12:03:51;;;;;;;7.70;3.72;;;;;;;20.93;49.52;98067.09;1468979;97;26108;-77
2022/05/09 12:06:36;;;;;;;5.30;3.62;;;;;;;20.91;48.95;98060.20;1484892;94;25772;-76
2022/05/09 12:09:09;;;;;;;8.45;3.70;;;;;;;20.83;48.37;98055.48;1453722;97;28308;-75
2022/05/09 12:11:46;;;;;;;5.92;3.58;;;;;;;20.93;48.84;98045.13;1473037;96;25896;-77